createdAt,value
2019-02-08T00:03:12.379Z,39.60
2019-02-08T00:06:35.879Z,40.60
2019-02-08T00:09:59.635Z,38.73
2019-02-08T00:13:23.314Z,38.57
2019-02-08T00:16:47.007Z,34.37
2019-02-08T00:20:13.748Z,37.87
2019-02-08T00:23:37.324Z,36.43
2019-02-08T00:27:01.100Z,37.37
2019-02-08T00:30:27.002Z,36.77
2019-02-08T00:33:51.105Z,37.87
2019-02-08T00:37:14.750Z,28.77
2019-02-08T00:40:38.441Z,37.50
2019-02-08T00:44:02.047Z,37.90
2019-02-08T00:47:26.208Z,37.40
2019-02-08T00:50:50.022Z,38.03
2019-02-08T00:54:14.168Z,37.00
2019-02-08T00:57:37.859Z,35.77
2019-02-08T01:01:01.416Z,36.33
2019-02-08T01:04:25.121Z,38.03
2019-02-08T01:07:48.890Z,36.17
2019-02-08T01:11:12.474Z,38.67
2019-02-08T01:14:36.322Z,36.47
2019-02-08T01:18:00.222Z,36.90
2019-02-08T01:21:24.006Z,35.83
2019-02-08T01:24:47.720Z,35.97
2019-02-08T01:28:11.445Z,36.60
2019-02-08T01:31:35.282Z,33.57
2019-02-08T01:34:58.869Z,36.63
2019-02-08T01:38:22.463Z,34.47
2019-02-08T01:41:47.696Z,37.57
2019-02-08T01:45:14.844Z,40.77
2019-02-08T01:48:38.591Z,39.67
2019-02-08T01:52:02.274Z,41.73
2019-02-08T01:55:26.671Z,45.13
2019-02-08T01:58:50.346Z,65.67
2019-02-08T02:02:14.464Z,42.17
2019-02-08T02:05:38.673Z,42.10
2019-02-08T02:09:02.746Z,45.03
2019-02-08T02:12:26.827Z,46.97
2019-02-08T02:15:50.465Z,85.50
2019-02-08T02:19:14.058Z,63.63
2019-02-08T02:22:37.826Z,57.87
2019-02-08T02:26:01.630Z,50.60
2019-02-08T02:29:26.325Z,42.90
2019-02-08T02:32:49.896Z,42.20
2019-02-08T02:36:13.568Z,41.50
2019-02-08T02:39:37.210Z,39.77
2019-02-08T02:43:00.792Z,48.83
2019-02-08T02:46:24.926Z,48.67
2019-02-08T02:49:48.854Z,58.73
2019-02-08T02:53:12.692Z,62.33
2019-02-08T02:56:36.505Z,44.40
2019-02-08T03:00:00.344Z,59.40
2019-02-08T03:03:24.009Z,57.17
2019-02-08T03:06:47.688Z,88.97
2019-02-08T03:10:14.460Z,42.40
2019-02-08T03:13:38.205Z,35.17
2019-02-08T03:17:02.195Z,36.53
2019-02-08T03:20:25.839Z,38.00
2019-02-08T03:23:49.745Z,34.93
2019-02-08T03:27:13.397Z,37.17
2019-02-08T03:30:53.472Z,35.80
2019-02-08T03:34:17.055Z,35.00
2019-02-08T03:37:40.842Z,35.77
2019-02-08T03:41:04.468Z,36.87
2019-02-08T03:44:28.184Z,33.47
2019-02-08T03:47:51.848Z,28.83
2019-02-08T03:51:15.423Z,22.57
2019-02-08T03:54:39.038Z,37.43
2019-02-08T03:58:02.753Z,36.83
2019-02-08T04:01:26.438Z,27.57
2019-02-08T04:04:50.208Z,31.97
2019-02-08T04:08:14.026Z,29.60
2019-02-08T04:11:37.697Z,26.00
2019-02-08T04:15:01.704Z,19.50
2019-02-08T04:18:25.297Z,39.83
2019-02-08T04:21:48.815Z,42.43
2019-02-08T04:25:14.888Z,39.43
2019-02-08T04:28:38.593Z,38.13
2019-02-08T04:32:02.303Z,36.93
2019-02-08T04:35:26.045Z,31.30
2019-02-08T04:38:49.703Z,24.50
2019-02-08T04:42:13.283Z,38.67
2019-02-08T04:45:37.151Z,26.70
2019-02-08T04:49:00.755Z,34.57
2019-02-08T04:52:24.455Z,43.53
2019-02-08T04:55:48.250Z,41.87
2019-02-08T04:59:11.718Z,42.87
2019-02-08T05:02:35.466Z,28.20
2019-02-08T05:05:59.532Z,42.97
2019-02-08T05:09:23.365Z,39.27
2019-02-08T05:12:47.091Z,43.30
2019-02-08T05:16:11.121Z,42.10
2019-02-08T05:19:34.633Z,42.60
2019-02-08T05:22:58.518Z,43.53
2019-02-08T05:26:22.265Z,49.23
2019-02-08T05:29:45.806Z,49.00
2019-02-08T05:33:09.297Z,51.57
2019-02-08T05:36:33.008Z,47.17
2019-02-08T05:39:56.704Z,43.33
2019-02-08T05:43:20.321Z,45.40
2019-02-08T05:46:44.306Z,42.67
2019-02-08T05:50:25.694Z,45.13
2019-02-08T05:53:50.435Z,46.00
2019-02-08T05:57:13.926Z,43.37
2019-02-08T06:00:43.122Z,47.90
2019-02-08T06:04:06.853Z,45.43
2019-02-08T06:07:30.535Z,42.97
2019-02-08T06:10:54.262Z,43.30
2019-02-08T06:14:17.849Z,43.27
2019-02-08T06:17:41.780Z,45.27
2019-02-08T06:21:05.382Z,41.97
2019-02-08T06:24:28.953Z,45.00
2019-02-08T06:27:52.518Z,43.70
2019-02-08T06:31:16.256Z,43.90
2019-02-08T06:34:41.344Z,42.50
2019-02-08T06:38:05.269Z,45.43
2019-02-08T06:41:29.003Z,52.47
2019-02-08T06:44:52.663Z,52.30
2019-02-08T06:48:16.241Z,53.90
2019-02-08T06:51:40.145Z,50.43
2019-02-08T06:55:10.815Z,51.03
2019-02-08T06:58:37.846Z,50.60
2019-02-08T07:02:14.798Z,53.10
2019-02-08T07:05:59.698Z,46.47
2019-02-08T07:09:27.745Z,44.67
2019-02-08T07:13:11.415Z,45.53
2019-02-08T07:16:37.568Z,44.50
2019-02-08T07:20:10.663Z,43.47
2019-02-08T07:23:48.090Z,41.37
2019-02-08T07:27:16.664Z,44.23
2019-02-08T07:30:44.691Z,40.63
2019-02-08T07:34:24.495Z,38.33
2019-02-08T07:38:00.188Z,39.00
2019-02-08T07:41:37.425Z,33.07
2019-02-08T07:45:05.062Z,37.97
2019-02-08T07:48:36.204Z,36.77
2019-02-08T07:52:13.580Z,38.30
2019-02-08T07:55:44.603Z,37.57
2019-02-08T07:59:26.349Z,38.23
2019-02-08T08:02:51.615Z,36.93
2019-02-08T08:06:32.850Z,36.17
2019-02-08T08:10:06.966Z,33.93
2019-02-08T08:13:35.149Z,36.33
2019-02-08T08:17:12.076Z,37.00
2019-02-08T08:20:52.343Z,34.73
2019-02-08T08:24:29.911Z,35.60
2019-02-08T08:28:13.070Z,35.50
2019-02-08T08:31:47.568Z,35.77
2019-02-08T08:35:44.345Z,35.00
2019-02-08T08:39:26.450Z,36.00
2019-02-08T08:43:15.236Z,34.67
2019-02-08T08:46:54.373Z,36.03
2019-02-08T08:50:27.053Z,33.93
2019-02-08T08:54:25.865Z,35.73
2019-02-08T08:58:04.343Z,27.30
2019-02-08T09:01:42.919Z,30.67
2019-02-08T09:05:27.404Z,30.53
2019-02-08T09:08:57.106Z,29.90
2019-02-08T09:12:52.404Z,26.43
2019-02-08T09:16:50.970Z,33.80
2019-02-08T09:20:32.355Z,32.27
2019-02-08T09:24:10.926Z,35.43
2019-02-08T09:27:49.710Z,30.97
2019-02-08T09:31:28.271Z,27.30
2019-02-08T09:35:03.931Z,35.53
2019-02-08T09:39:05.039Z,36.33
2019-02-08T09:43:00.540Z,34.93
2019-02-08T09:46:30.323Z,33.43
2019-02-08T09:50:30.558Z,37.70
2019-02-08T09:54:18.271Z,35.47
2019-02-08T09:57:53.917Z,36.00
2019-02-08T10:01:46.725Z,38.27
2019-02-08T10:05:34.430Z,33.90
2019-02-08T10:09:16.305Z,31.43
2019-02-08T10:13:16.355Z,37.90
2019-02-08T10:16:52.231Z,32.87
2019-02-08T10:20:33.639Z,36.10
2019-02-08T10:24:06.363Z,35.93
2019-02-08T10:27:51.267Z,36.87
2019-02-08T10:31:27.056Z,34.93
2019-02-08T10:35:17.975Z,32.17
2019-02-08T10:39:07.358Z,33.97
2019-02-08T10:42:45.908Z,32.87
2019-02-08T10:46:27.585Z,30.93
2019-02-08T10:50:26.780Z,30.43
2019-02-08T10:54:29.257Z,31.40
2019-02-08T10:58:28.071Z,31.47
2019-02-08T11:02:09.682Z,30.93
2019-02-08T11:05:52.850Z,30.53
2019-02-08T11:09:48.384Z,34.03
2019-02-08T11:13:17.831Z,30.63
2019-02-08T11:17:05.840Z,32.13
2019-02-08T11:20:29.460Z,31.73
2019-02-08T11:23:53.130Z,32.10
2019-02-08T11:27:16.660Z,31.03
2019-02-08T11:30:40.243Z,34.20
2019-02-08T11:34:03.948Z,32.43
2019-02-08T11:37:27.523Z,31.40
2019-02-08T11:40:51.358Z,30.70
2019-02-08T11:44:15.080Z,32.80
2019-02-08T11:47:38.755Z,32.27
2019-02-08T11:51:02.400Z,30.20
2019-02-08T11:54:26.311Z,28.17
2019-02-08T11:57:49.988Z,31.00
2019-02-08T12:01:13.643Z,26.33
2019-02-08T12:04:37.339Z,28.70
2019-02-08T12:08:01.050Z,28.50
2019-02-08T12:11:24.766Z,27.53
2019-02-08T12:14:48.463Z,27.73
2019-02-08T12:18:12.358Z,27.37
2019-02-08T12:21:36.345Z,26.77
2019-02-08T12:25:00.018Z,28.83
2019-02-08T12:28:23.543Z,29.97
2019-02-08T12:31:47.118Z,29.13
2019-02-08T12:35:11.219Z,29.87
2019-02-08T12:38:35.008Z,30.10
2019-02-08T12:41:58.943Z,27.20
2019-02-08T12:45:22.734Z,29.13
2019-02-08T12:48:48.608Z,29.03
2019-02-08T12:52:12.154Z,30.27
2019-02-08T12:55:35.863Z,28.60
2019-02-08T12:58:59.511Z,28.97
2019-02-08T13:02:22.985Z,24.80
2019-02-08T13:05:46.688Z,27.83
2019-02-08T13:09:10.568Z,30.07
2019-02-08T13:12:34.242Z,28.33
2019-02-08T13:15:57.826Z,28.03
2019-02-08T13:19:21.964Z,27.90
2019-02-08T13:22:46.895Z,28.13
2019-02-08T13:26:10.866Z,27.53
2019-02-08T13:29:34.465Z,27.27
2019-02-08T13:32:58.282Z,26.27
2019-02-08T13:36:22.219Z,25.47
2019-02-08T13:39:45.907Z,26.00
2019-02-08T13:43:09.646Z,25.77
2019-02-08T13:46:33.430Z,23.67
2019-02-08T13:49:57.293Z,23.30
2019-02-08T13:53:25.099Z,25.30
2019-02-08T13:56:49.165Z,24.10
2019-02-08T14:00:18.928Z,24.30
2019-02-08T14:03:42.365Z,24.60
2019-02-08T14:07:06.014Z,23.27
2019-02-08T14:10:29.698Z,22.83
2019-02-08T14:13:53.411Z,22.63
2019-02-08T14:17:17.183Z,24.60
2019-02-08T14:20:40.969Z,21.83
2019-02-08T14:24:04.568Z,22.67
2019-02-08T14:27:28.321Z,20.80
2019-02-08T14:30:51.964Z,23.13
2019-02-08T14:34:15.521Z,20.10
2019-02-08T14:37:39.008Z,21.57
2019-02-08T14:41:02.723Z,21.63
2019-02-08T14:44:26.755Z,24.77
2019-02-08T14:47:50.545Z,29.40
2019-02-08T14:51:15.181Z,32.87
2019-02-08T14:54:38.625Z,33.87
2019-02-08T14:58:04.883Z,34.23
2019-02-08T15:01:28.536Z,33.80
2019-02-08T15:04:52.341Z,33.23
2019-02-08T15:08:15.818Z,35.20
2019-02-08T15:11:39.608Z,40.43
2019-02-08T15:15:03.152Z,43.80
2019-02-08T15:18:27.349Z,44.17
2019-02-08T15:21:51.555Z,43.63
2019-02-08T15:25:15.186Z,44.07
2019-02-08T15:28:38.845Z,42.40
2019-02-08T15:32:02.864Z,45.83
2019-02-08T15:35:28.514Z,42.03
2019-02-08T15:38:52.143Z,42.90
2019-02-08T15:42:15.776Z,45.83
2019-02-08T15:45:40.209Z,46.10
2019-02-08T15:49:04.308Z,49.33
2019-02-08T15:52:30.831Z,51.73
2019-02-08T15:56:00.295Z,51.17
2019-02-08T15:59:24.033Z,51.27
2019-02-08T16:02:48.961Z,65.93
2019-02-08T16:06:13.038Z,82.77
2019-02-08T16:09:36.786Z,105.80
2019-02-08T16:13:00.473Z,153.73
2019-02-08T16:16:24.141Z,89.30
2019-02-08T16:19:47.753Z,85.77
2019-02-08T16:23:11.831Z,98.43
2019-02-08T16:26:35.694Z,82.53
2019-02-08T16:29:59.874Z,93.00
2019-02-08T16:33:23.592Z,78.27
2019-02-08T16:36:47.066Z,102.30
2019-02-08T16:40:19.281Z,90.90
2019-02-08T16:43:42.917Z,75.40
2019-02-08T16:47:06.544Z,80.50
2019-02-08T16:50:32.790Z,83.77
2019-02-08T16:53:56.490Z,82.73
2019-02-08T16:57:20.594Z,81.60
2019-02-08T17:00:44.349Z,88.33
2019-02-08T17:04:08.609Z,114.63
2019-02-08T17:07:32.733Z,94.53
2019-02-08T17:10:56.385Z,112.57
2019-02-08T17:14:20.553Z,97.40
2019-02-08T17:17:44.130Z,83.27
2019-02-08T17:21:07.905Z,83.33
2019-02-08T17:24:33.344Z,90.17
2019-02-08T17:27:57.424Z,105.40
2019-02-08T17:31:21.093Z,116.40
2019-02-08T17:34:45.256Z,109.90
2019-02-08T17:38:09.034Z,101.07
2019-02-08T17:41:32.721Z,97.87
2019-02-08T17:44:56.386Z,101.43
2019-02-08T17:48:20.166Z,92.03
2019-02-08T17:51:43.688Z,92.30
2019-02-08T17:55:12.522Z,94.37
2019-02-08T17:58:36.046Z,92.93
2019-02-08T18:01:59.698Z,96.83
2019-02-08T18:05:23.517Z,101.07
2019-02-08T18:08:47.320Z,89.33
2019-02-08T18:12:10.821Z,79.20
2019-02-08T18:15:34.643Z,90.27
2019-02-08T18:18:58.633Z,90.30
2019-02-08T18:22:22.501Z,108.53
2019-02-08T18:25:46.828Z,90.70
2019-02-08T18:29:14.309Z,103.10
2019-02-08T18:32:38.123Z,98.13
2019-02-08T18:36:02.033Z,148.97
2019-02-08T18:39:26.006Z,150.47
2019-02-08T18:42:49.988Z,157.13
2019-02-08T18:46:13.884Z,135.83
2019-02-08T18:49:39.510Z,130.10
2019-02-08T18:53:03.261Z,127.87
2019-02-08T18:56:28.890Z,124.60
2019-02-08T18:59:52.776Z,129.20
2019-02-08T19:03:18.027Z,132.87
2019-02-08T19:06:42.147Z,176.00
2019-02-08T19:10:08.990Z,247.77
2019-02-08T19:13:32.803Z,188.83
2019-02-08T19:16:56.845Z,297.67
2019-02-08T19:20:25.905Z,196.77
2019-02-08T19:23:49.602Z,216.53
2019-02-08T19:27:13.546Z,184.23
2019-02-08T19:30:42.175Z,198.83
2019-02-08T19:34:12.134Z,310.10
2019-02-08T19:37:39.221Z,427.27
2019-02-08T19:41:04.897Z,124.67
2019-02-08T19:44:28.612Z,127.10
2019-02-08T19:47:52.396Z,123.40
2019-02-08T19:51:17.805Z,130.10
2019-02-08T19:54:43.512Z,131.10
2019-02-08T19:58:08.569Z,133.23
2019-02-08T20:01:32.217Z,148.13
2019-02-08T20:05:02.337Z,130.63
2019-02-08T20:08:27.905Z,136.30
2019-02-08T20:11:51.744Z,132.73
2019-02-08T20:15:19.958Z,147.67
2019-02-08T20:18:45.966Z,142.97
2019-02-08T20:22:10.232Z,165.50
2019-02-08T20:25:36.097Z,171.53
2019-02-08T20:29:00.002Z,206.63
2019-02-08T20:32:23.633Z,205.33
2019-02-08T20:35:47.409Z,201.20
2019-02-08T20:39:11.256Z,196.70
2019-02-08T20:42:35.085Z,167.83
2019-02-08T20:45:58.737Z,140.63
2019-02-08T20:49:22.932Z,144.53
2019-02-08T20:52:46.604Z,162.60
2019-02-08T20:56:10.384Z,161.80
2019-02-08T20:59:34.769Z,149.17
2019-02-08T21:02:59.446Z,158.53
2019-02-08T21:06:23.156Z,155.07
2019-02-08T21:09:46.970Z,164.97
2019-02-08T21:13:10.943Z,193.87
2019-02-08T21:16:34.947Z,225.73
2019-02-08T21:19:58.555Z,191.57
2019-02-08T21:23:23.140Z,180.53
2019-02-08T21:26:46.927Z,190.03
2019-02-08T21:30:15.157Z,165.63
2019-02-08T21:33:38.664Z,196.63
2019-02-08T21:37:02.703Z,192.20
2019-02-08T21:40:27.761Z,160.07
2019-02-08T21:43:51.427Z,167.37
2019-02-08T21:47:14.969Z,176.37
2019-02-08T21:50:38.714Z,161.53
2019-02-08T21:54:04.657Z,177.93
2019-02-08T21:57:28.441Z,180.63
2019-02-08T22:00:52.111Z,195.40
2019-02-08T22:04:15.851Z,183.00
2019-02-08T22:07:39.520Z,192.00
2019-02-08T22:11:03.603Z,200.40
2019-02-08T22:14:27.073Z,201.47
2019-02-08T22:17:50.895Z,206.33
2019-02-08T22:21:14.658Z,199.83
2019-02-08T22:24:38.261Z,206.27
2019-02-08T22:28:01.883Z,216.80
2019-02-08T22:31:25.444Z,242.03
2019-02-08T22:34:49.096Z,208.80
2019-02-08T22:38:12.694Z,217.53
2019-02-08T22:41:36.219Z,203.07
2019-02-08T22:45:08.430Z,178.73
2019-02-08T22:48:25.328Z,190.03
2019-02-08T22:51:49.281Z,190.70
2019-02-08T22:55:15.739Z,190.63
2019-02-08T22:58:39.470Z,200.60
2019-02-08T23:02:03.984Z,188.90
2019-02-08T23:05:27.465Z,194.03
2019-02-08T23:08:51.358Z,176.40
2019-02-08T23:12:14.856Z,180.03
2019-02-08T23:15:38.492Z,169.73
2019-02-08T23:19:02.143Z,152.10
2019-02-08T23:22:26.260Z,169.83
2019-02-08T23:25:49.985Z,182.90
2019-02-08T23:29:13.477Z,164.20
2019-02-08T23:32:37.899Z,176.87
2019-02-08T23:36:01.567Z,167.87
2019-02-08T23:39:25.449Z,152.37
2019-02-08T23:42:48.983Z,149.70
2019-02-08T23:46:12.540Z,151.57
2019-02-08T23:49:36.493Z,153.43
2019-02-08T23:53:00.161Z,151.67
2019-02-08T23:56:23.937Z,148.23
2019-02-08T23:59:47.416Z,149.30
